createdAt,value
2023-03-21T18:14:26.842Z,12.90
2023-03-21T18:16:55.604Z,13.00
2023-03-21T18:19:22.354Z,12.90
2023-03-21T18:21:49.328Z,12.90
2023-03-21T18:24:16.138Z,13.00
2023-03-21T18:26:43.833Z,13.00
2023-03-21T18:32:07.347Z,12.90
2023-03-21T18:34:36.849Z,12.90
2023-03-21T18:37:04.483Z,12.90
2023-03-21T18:39:33.118Z,12.90
2023-03-21T18:42:02.505Z,12.90
2023-03-21T18:44:31.138Z,12.90
2023-03-21T18:46:58.236Z,12.90
2023-03-21T18:50:09.838Z,12.80
2023-03-21T18:52:13.756Z,12.80
2023-03-21T18:54:40.704Z,12.80
2023-03-21T18:59:56.601Z,12.80
2023-03-21T19:02:23.455Z,12.70
2023-03-21T19:04:50.296Z,12.70
2023-03-21T19:07:17.323Z,12.60
2023-03-21T19:10:05.415Z,12.60
2023-03-21T19:12:31.329Z,12.60
2023-03-21T19:14:58.178Z,12.60
2023-03-21T19:20:14.872Z,12.60
2023-03-21T19:22:42.288Z,12.60
2023-03-21T19:25:15.602Z,12.60
2023-03-21T19:27:42.409Z,12.60
2023-03-21T19:30:15.259Z,12.60
2023-03-21T19:32:43.681Z,12.60
2023-03-21T19:35:10.997Z,12.50
2023-03-21T19:37:37.883Z,12.60
2023-03-21T19:40:06.283Z,12.60
2023-03-21T19:42:34.669Z,12.60
2023-03-21T19:45:02.370Z,12.60
2023-03-21T19:47:28.942Z,12.50
2023-03-21T19:52:46.080Z,12.50
2023-03-21T19:55:14.797Z,12.50
2023-03-21T19:57:41.840Z,12.50
2023-03-21T20:00:11.206Z,12.50
2023-03-21T20:02:38.138Z,12.50
2023-03-21T20:05:08.352Z,12.50
2023-03-21T20:07:35.550Z,12.60
2023-03-21T20:10:02.312Z,12.60
2023-03-21T20:12:29.240Z,12.60
2023-03-21T20:15:16.084Z,12.60
2023-03-21T20:17:43.150Z,12.60
2023-03-21T20:20:10.809Z,12.60
2023-03-21T20:23:05.185Z,12.60
2023-03-21T20:25:24.647Z,12.70
2023-03-21T20:28:06.245Z,12.70
2023-03-21T20:30:37.400Z,12.70
2023-03-21T20:33:04.235Z,12.70
2023-03-21T20:36:16.466Z,12.70
2023-03-21T20:38:20.389Z,12.70
2023-03-21T20:40:47.950Z,12.70
2023-03-21T20:44:04.887Z,12.70
2023-03-21T20:46:08.782Z,12.70
2023-03-21T20:48:38.200Z,12.70
2023-03-21T20:52:14.809Z,12.60
2023-03-21T20:53:57.719Z,12.60
2023-03-21T20:56:24.416Z,12.60
2023-03-21T20:59:04.979Z,12.60
2023-03-21T21:01:38.442Z,12.60
2023-03-21T21:04:06.170Z,12.60
2023-03-21T21:06:32.995Z,12.60
2023-03-21T21:09:00.158Z,12.60
2023-03-21T21:12:05.199Z,12.60
2023-03-21T21:14:16.053Z,12.50
2023-03-21T21:16:50.757Z,12.40
2023-03-21T21:19:18.879Z,12.40
2023-03-21T21:21:46.028Z,12.30
2023-03-21T21:24:14.644Z,12.20
2023-03-21T21:26:46.127Z,12.10
